This is the latest recevied weather packets stored in our database for station/object CR7BQX-11. If no packets are shown the sender has not sent any weather packets the latest 10 day(s).
| Time | Temp. | Humidity | Pressure | Rain* | Wind** | Luminosity | Snow |
|---|---|---|---|---|---|---|---|
| 1777571923 | 23.33° C | 48% | 1005.5 hPa | - | - | - | - |
| 1777571023 | 23.33° C | 48% | 1005.5 hPa | - | - | - | - |
| 1777570123 | 23.33° C | 48% | 1005.5 hPa | - | - | - | - |
| 1777564726 | 23.33° C | 48% | 1005.3 hPa | - | - | - | - |
| 1777562925 | 23.33° C | 47% | 1005.3 hPa | - | - | - | - |
| 1777558424 | 22.78° C | 48% | 1005.6 hPa | - | - | - | - |
| 1777557524 | 22.22° C | 51% | 1005.6 hPa | - | - | - | - |
| 1777555725 | 22.78° C | 50% | 1005.3 hPa | - | - | - | - |
| 1777553023 | 22.22° C | 52% | 1005.1 hPa | - | - | - | - |
| 1777549423 | 22.78° C | 47% | 1004.9 hPa | - | - | - | - |
| 1777548522 | 22.78° C | 47% | 1004.9 hPa | - | - | - | - |
| 1777547622 | 23.33° C | 47% | 1004.9 hPa | - | - | - | - |
| 1777544921 | 22.78° C | 47% | 1004.7 hPa | - | - | - | - |
| 1777544021 | 22.78° C | 47% | 1004.7 hPa | - | - | - | - |
| 1777543126 | 22.78° C | 46% | 1004.6 hPa | - | - | - | - |
| 1777541325 | 22.78° C | 48% | 1004.4 hPa | - | - | - | - |
| 1777539525 | 22.22° C | 50% | 1004.3 hPa | - | - | - | - |
| 1777537724 | 22.22° C | 51% | 1004.1 hPa | - | - | - | - |
| 1777534124 | 22.78° C | 50% | 1003.7 hPa | - | - | - | - |
| 1777533224 | 22.22° C | 51% | 1003.5 hPa | - | - | - | - |
| 1777532323 | 22.78° C | 52% | 1003.4 hPa | - | - | - | - |
| 1777531424 | 23.89° C | 51% | 1003.2 hPa | - | - | - | - |
| 1777530523 | 23.89° C | 51% | 1003.1 hPa | - | - | - | - |
| 1777529624 | 23.89° C | 52% | 1003.1 hPa | - | - | - | - |
| 1777528723 | 23.89° C | 51% | 1003 hPa | - | - | - | - |
* Rain since midnight (hover to see other rain measurements)
** Current wind speed in m/s (hover to see current wind gust speed)